Time;durP1;ratioP1;P1;durP2;ratioP2;P2;SDS_P1;SDS_P2;PMS_P1;PMS_P2;Temp;Humidity;BMP_temperature;BMP_pressure;BME280_temperature;BME280_humidity;BME280_pressure;Samples;Min_cycle;Max_cycle;Signal;HPM_P1;HPM_P2
2022/05/07 00:02:19;;;;;;;3.70;3.40;;;13.40;99.90;;;;;;5091150;28;20467;-48
2022/05/07 00:04:48;;;;;;;4.43;3.00;;;13.40;99.90;;;;;;5091596;28;20811;-46
2022/05/07 00:07:14;;;;;;;3.53;3.23;;;13.50;99.90;;;;;;5091220;28;20806;-46
2022/05/07 00:09:41;;;;;;;3.97;3.67;;;13.50;99.90;;;;;;5143038;22;20518;-47
2022/05/07 00:12:09;;;;;;;3.63;3.33;;;13.50;99.90;;;;;;5070683;28;20483;-46
2022/05/07 00:14:36;;;;;;;3.33;3.03;;;13.50;99.90;;;;;;5070875;28;20468;-46
2022/05/07 00:19:50;;;;;;;3.80;3.50;;;13.60;99.90;;;;;;5070944;28;20475;-49
2022/05/07 00:22:17;;;;;;;3.37;3.07;;;13.60;99.90;;;;;;5070740;28;20451;-53
2022/05/07 00:24:44;;;;;;;4.00;3.60;;;13.60;99.90;;;;;;5070840;28;21006;-46
2022/05/07 00:27:13;;;;;;;5.27;4.80;;;13.70;99.90;;;;;;5070860;28;20472;-46
2022/05/07 00:29:40;;;;;;;5.87;4.40;;;13.80;99.90;;;;;;5073757;28;20460;-47
2022/05/07 00:32:09;;;;;;;7.80;6.57;;;13.80;99.90;;;;;;5074479;28;20483;-45
2022/05/07 00:34:36;;;;;;;7.90;6.30;;;13.80;99.90;;;;;;5074493;28;20440;-45
2022/05/07 00:37:04;;;;;;;5.90;5.30;;;13.80;99.90;;;;;;5074529;28;20448;-46
2022/05/07 00:39:31;;;;;;;5.10;4.60;;;13.90;99.90;;;;;;5074512;28;20836;-46
2022/05/07 00:42:03;;;;;;;4.90;4.40;;;13.80;99.90;;;;;;5074363;28;20432;-46
2022/05/07 00:44:29;;;;;;;4.00;3.60;;;13.90;99.90;;;;;;5074100;28;20914;-45
2022/05/07 00:47:07;;;;;;;4.43;4.03;;;13.90;99.90;;;;;;5075051;28;20479;-46
2022/05/07 00:49:35;;;;;;;4.30;3.90;;;13.90;99.90;;;;;;5074180;28;20510;-46
2022/05/07 00:52:03;;;;;;;4.40;4.00;;;13.80;99.90;;;;;;5074376;28;20497;-45
2022/05/07 00:54:30;;;;;;;5.70;3.63;;;13.80;99.90;;;;;;5073992;28;20470;-46
2022/05/07 00:56:57;;;;;;;4.00;3.20;;;13.80;99.90;;;;;;5074219;28;20448;-48
2022/05/07 00:59:24;;;;;;;4.10;3.70;;;13.80;99.90;;;;;;5074239;28;20484;-46
2022/05/07 01:01:51;;;;;;;4.20;3.30;;;13.70;99.90;;;;;;5074063;28;20480;-48
2022/05/07 01:04:18;;;;;;;3.20;2.90;;;13.70;99.90;;;;;;5073813;28;20441;-46
2022/05/07 01:06:45;;;;;;;3.90;2.80;;;13.70;99.90;;;;;;5073828;28;20486;-50
2022/05/07 01:09:14;;;;;;;3.20;2.90;;;13.70;99.90;;;;;;5073800;28;20456;-46
2022/05/07 01:11:41;;;;;;;3.33;3.03;;;13.60;99.90;;;;;;5073638;28;20516;-46
2022/05/07 01:14:08;;;;;;;4.43;3.17;;;13.70;99.90;;;;;;5073823;28;20440;-49
2022/05/07 01:16:35;;;;;;;3.20;2.90;;;13.80;99.90;;;;;;5073912;28;20883;-43
2022/05/07 01:19:02;;;;;;;3.03;2.73;;;13.80;99.90;;;;;;5073564;28;20476;-43
2022/05/07 01:21:30;;;;;;;3.60;2.80;;;13.90;99.90;;;;;;5073652;28;20503;-44
2022/05/07 01:23:58;;;;;;;3.30;3.00;;;13.80;99.90;;;;;;5073062;28;21022;-44
2022/05/07 01:26:25;;;;;;;4.03;3.20;;;13.80;99.90;;;;;;5074119;28;20445;-44
2022/05/07 01:28:59;;;;;;;3.27;2.70;;;13.70;99.90;;;;;;5073189;28;20976;-43
2022/05/07 01:31:26;;;;;;;3.23;2.93;;;13.70;99.90;;;;;;5073626;28;20440;-43
2022/05/07 01:33:54;;;;;;;2.77;2.57;;;13.80;99.90;;;;;;5073118;28;20440;-43
2022/05/07 01:36:21;;;;;;;2.80;2.60;;;13.80;99.90;;;;;;5072991;28;20436;-43
2022/05/07 01:38:49;;;;;;;3.23;2.67;;;13.80;99.90;;;;;;5073268;28;20468;-44
2022/05/07 01:41:17;;;;;;;3.07;2.77;;;13.80;99.90;;;;;;5073578;28;20440;-45
2022/05/07 01:43:44;;;;;;;3.77;2.70;;;13.80;99.90;;;;;;5073223;28;20440;-46
2022/05/07 01:48:52;;;;;;;2.80;2.50;;;13.70;99.90;;;;;;5072928;28;20520;-43
2022/05/07 01:51:19;;;;;;;2.40;2.20;;;13.70;99.90;;;;;;5073334;28;20475;-43
2022/05/07 01:53:46;;;;;;;2.90;2.70;;;13.70;99.90;;;;;;5072828;28;20464;-43
2022/05/07 01:56:14;;;;;;;2.77;2.47;;;13.80;99.90;;;;;;5073104;28;20444;-45
2022/05/07 01:58:41;;;;;;;3.17;2.30;;;13.80;99.90;;;;;;5072803;28;20972;-43
2022/05/07 02:01:10;;;;;;;3.40;2.73;;;13.80;99.90;;;;;;5072566;28;20476;-43
2022/05/07 02:03:38;;;;;;;2.97;2.67;;;13.80;99.90;;;;;;5072904;28;20443;-43
2022/05/07 02:06:05;;;;;;;3.50;2.43;;;13.80;99.90;;;;;;5073006;28;20444;-46
2022/05/07 02:08:32;;;;;;;2.60;2.40;;;13.70;99.90;;;;;;5073202;28;20444;-43
2022/05/07 02:11:01;;;;;;;3.23;2.87;;;13.70;99.90;;;;;;5072699;28;20879;-43
2022/05/07 02:13:30;;;;;;;3.03;2.33;;;13.70;99.90;;;;;;5072308;28;20496;-44
2022/05/07 02:15:57;;;;;;;2.87;2.67;;;13.80;99.90;;;;;;5072878;28;20809;-43
2022/05/07 02:18:24;;;;;;;3.30;3.00;;;13.70;99.90;;;;;;5072512;28;20987;-45
2022/05/07 02:20:52;;;;;;;2.57;2.37;;;13.70;99.90;;;;;;5072206;28;20525;-43
2022/05/07 02:23:20;;;;;;;3.27;2.97;;;13.70;99.90;;;;;;5072353;28;20444;-43
2022/05/07 02:25:47;;;;;;;3.30;3.00;;;13.60;99.90;;;;;;5072678;28;20475;-43
2022/05/07 02:28:14;;;;;;;3.07;2.40;;;13.60;99.90;;;;;;5071805;28;20472;-43
2022/05/07 02:30:42;;;;;;;2.60;2.40;;;13.50;99.90;;;;;;5072592;28;20468;-44
2022/05/07 02:33:09;;;;;;;2.93;2.73;;;13.50;99.90;;;;;;5072448;28;20444;-43
2022/05/07 02:35:37;;;;;;;3.37;2.60;;;13.50;99.90;;;;;;5072224;28;20444;-43
2022/05/07 02:38:04;;;;;;;3.67;3.00;;;13.40;99.90;;;;;;5071922;28;20448;-44
2022/05/07 02:42:33;;;;;;;3.53;3.20;;;13.50;99.90;;;;;;5072046;28;20480;-43
2022/05/07 02:43:17;;;;;;;3.13;2.80;;;13.40;99.90;;;;;;5071600;28;20432;-43
2022/05/07 02:45:45;;;;;;;3.40;3.10;;;13.40;99.90;;;;;;5071994;28;20520;-44
2022/05/07 02:48:12;;;;;;;3.00;2.70;;;13.40;99.90;;;;;;5072554;28;20445;-45
2022/05/07 02:50:39;;;;;;;4.00;3.47;;;13.40;99.90;;;;;;5071330;28;20874;-43
2022/05/07 02:53:06;;;;;;;2.97;2.50;;;13.40;99.90;;;;;;5071936;28;20479;-48
2022/05/07 02:55:33;;;;;;;3.27;2.70;;;13.40;99.90;;;;;;5071973;28;20516;-43
2022/05/07 02:58:01;;;;;;;3.57;2.70;;;13.40;99.90;;;;;;5072004;28;20765;-43
2022/05/07 03:00:28;;;;;;;3.30;2.40;;;13.50;99.90;;;;;;5071767;28;20480;-43
2022/05/07 03:02:56;;;;;;;2.87;2.57;;;13.50;99.90;;;;;;5071666;28;20953;-44
2022/05/07 03:05:23;;;;;;;2.57;2.30;;;13.60;99.90;;;;;;5071564;28;20860;-43
2022/05/07 03:07:50;;;;;;;2.57;2.37;;;13.60;99.90;;;;;;5071710;28;20436;-43
2022/05/07 03:10:17;;;;;;;3.00;2.30;;;13.60;99.90;;;;;;5071589;28;20821;-44
2022/05/07 03:12:44;;;;;;;3.47;3.10;;;13.50;99.90;;;;;;5071735;28;20463;-43
2022/05/07 03:15:11;;;;;;;3.07;2.40;;;13.50;99.90;;;;;;5071476;28;20456;-48
2022/05/07 03:17:38;;;;;;;3.13;2.83;;;13.50;99.90;;;;;;5071646;28;20445;-44
2022/05/07 03:20:11;;;;;;;2.50;2.30;;;13.60;99.90;;;;;;5071183;28;20575;-43
2022/05/07 03:22:39;;;;;;;2.63;2.23;;;13.60;99.90;;;;;;5071366;28;20455;-45
2022/05/07 03:25:06;;;;;;;2.30;2.10;;;13.60;99.90;;;;;;5071543;28;20957;-45
2022/05/07 03:27:33;;;;;;;4.70;2.57;;;13.50;99.90;;;;;;5071482;28;20804;-43
2022/05/07 03:30:00;;;;;;;3.20;2.73;;;13.60;99.90;;;;;;5071385;28;20453;-47
2022/05/07 03:32:27;;;;;;;3.10;2.80;;;13.60;99.90;;;;;;5071383;28;20468;-44
2022/05/07 03:34:56;;;;;;;3.90;2.57;;;13.60;99.90;;;;;;5071335;28;20436;-43
2022/05/07 03:37:24;;;;;;;3.33;3.00;;;13.50;99.90;;;;;;5071610;28;20455;-43
2022/05/07 03:39:51;;;;;;;3.67;3.37;;;13.60;99.90;;;;;;5071286;28;20480;-43
2022/05/07 03:42:19;;;;;;;3.10;2.80;;;13.50;99.90;;;;;;5070924;28;20468;-41
2022/05/07 03:44:46;;;;;;;3.00;2.27;;;13.50;99.90;;;;;;5071561;28;20444;-43
2022/05/07 03:47:13;;;;;;;2.77;2.43;;;13.50;99.90;;;;;;5071335;28;20885;-46
2022/05/07 03:49:41;;;;;;;3.70;3.03;;;13.40;99.90;;;;;;5070992;28;20499;-43
2022/05/07 03:54:53;;;;;;;2.63;2.43;;;13.40;99.90;;;;;;5071388;28;20419;-45
2022/05/07 03:57:20;;;;;;;2.57;2.37;;;13.40;99.90;;;;;;5071393;28;20470;-47
2022/05/07 03:59:47;;;;;;;3.87;3.00;;;13.40;99.90;;;;;;5071027;28;21003;-43
2022/05/07 04:02:14;;;;;;;3.17;2.87;;;13.40;99.90;;;;;;5071360;28;20444;-43
2022/05/07 04:04:41;;;;;;;3.40;3.10;;;13.40;99.90;;;;;;5074774;28;20440;-43
2022/05/07 04:07:09;;;;;;;2.93;2.70;;;13.40;99.90;;;;;;5075026;28;20933;-43
2022/05/07 04:09:37;;;;;;;3.17;2.60;;;13.40;99.90;;;;;;5075072;28;20480;-43
2022/05/07 04:12:06;;;;;;;2.70;2.20;;;13.40;99.90;;;;;;5075331;28;20444;-43
2022/05/07 04:14:33;;;;;;;2.40;2.20;;;13.40;99.90;;;;;;5074765;28;20447;-48
2022/05/07 04:17:00;;;;;;;3.40;2.47;;;13.40;99.90;;;;;;5074985;28;20486;-43
2022/05/07 04:19:27;;;;;;;3.27;2.63;;;13.40;99.90;;;;;;5075116;28;20496;-44
2022/05/07 04:21:54;;;;;;;3.03;2.60;;;13.40;99.90;;;;;;5074648;28;20506;-44
2022/05/07 04:24:21;;;;;;;2.73;2.20;;;13.30;99.90;;;;;;5074481;28;20472;-43
2022/05/07 04:26:48;;;;;;;3.20;2.50;;;13.30;99.90;;;;;;5074790;28;21002;-43
2022/05/07 04:29:16;;;;;;;2.33;2.13;;;13.40;99.90;;;;;;5074006;28;20518;-43
2022/05/07 04:31:45;;;;;;;2.50;2.10;;;13.40;99.90;;;;;;5074851;28;20558;-44
2022/05/07 04:34:12;;;;;;;2.50;1.93;;;13.40;99.90;;;;;;5074220;28;20886;-43
2022/05/07 04:36:39;;;;;;;3.33;2.90;;;13.40;99.90;;;;;;5074684;28;20497;-43
2022/05/07 04:39:06;;;;;;;3.30;2.83;;;13.50;99.90;;;;;;5074406;28;20690;-43
2022/05/07 04:41:33;;;;;;;3.67;2.87;;;13.50;99.90;;;;;;5074303;28;20568;-45
2022/05/07 04:44:01;;;;;;;3.30;3.00;;;13.40;99.90;;;;;;5074277;28;20468;-43
2022/05/07 04:46:29;;;;;;;3.70;3.40;;;13.40;99.90;;;;;;5074948;28;20444;-43
2022/05/07 04:48:56;;;;;;;3.80;3.50;;;13.50;99.90;;;;;;5074309;28;20472;-43
2022/05/07 04:51:23;;;;;;;3.23;2.93;;;13.50;99.90;;;;;;5074237;28;20476;-43
2022/05/07 04:53:50;;;;;;;2.97;2.73;;;13.50;99.90;;;;;;5074030;28;20472;-45
2022/05/07 04:56:17;;;;;;;3.03;2.73;;;13.60;99.90;;;;;;5074208;28;20440;-43
2022/05/07 04:58:43;;;;;;;2.80;2.60;;;13.50;99.90;;;;;;5074166;28;20476;-43
2022/05/07 05:01:10;;;;;;;3.47;2.67;;;13.50;99.90;;;;;;5073982;28;20939;-45
2022/05/07 05:03:39;;;;;;;2.87;2.63;;;13.40;99.90;;;;;;5073669;28;20479;-42
2022/05/07 05:06:06;;;;;;;3.03;2.73;;;13.40;99.90;;;;;;5074307;28;20472;-43
2022/05/07 05:08:32;;;;;;;4.00;2.60;;;13.40;99.90;;;;;;5074050;28;20475;-48
2022/05/07 05:10:59;;;;;;;3.57;2.97;;;13.40;99.90;;;;;;5073730;28;20492;-43
2022/05/07 05:13:26;;;;;;;3.30;3.00;;;13.40;99.90;;;;;;5073371;28;20499;-43
2022/05/07 05:15:53;;;;;;;3.93;3.03;;;13.40;99.90;;;;;;5073868;28;20476;-43
2022/05/07 05:18:20;;;;;;;4.20;3.80;;;13.40;99.90;;;;;;5074041;28;20486;-43
2022/05/07 05:20:49;;;;;;;3.70;2.80;;;13.40;99.90;;;;;;5073421;28;20558;-48
2022/05/07 05:23:16;;;;;;;4.20;2.70;;;13.40;99.90;;;;;;5073624;28;20440;-45
2022/05/07 05:25:43;;;;;;;3.47;2.90;;;13.40;99.90;;;;;;5073820;28;20561;-43
2022/05/07 05:28:11;;;;;;;4.80;3.20;;;13.40;99.90;;;;;;5073135;28;20448;-44
2022/05/07 05:30:38;;;;;;;3.73;3.30;;;13.30;99.90;;;;;;5073659;28;20466;-43
2022/05/07 05:33:06;;;;;;;3.30;3.00;;;13.30;99.90;;;;;;5073387;28;20441;-43
2022/05/07 05:35:32;;;;;;;3.37;3.07;;;13.40;99.90;;;;;;5073381;28;20476;-44
2022/05/07 05:38:01;;;;;;;3.80;2.90;;;13.40;99.90;;;;;;5073367;28;20535;-43
2022/05/07 05:40:28;;;;;;;3.23;2.93;;;13.30;99.90;;;;;;5072935;28;20477;-43
2022/05/07 05:42:55;;;;;;;3.60;3.30;;;13.30;99.90;;;;;;5073211;28;20471;-48
2022/05/07 05:45:22;;;;;;;3.67;3.37;;;13.30;99.90;;;;;;5073500;28;20914;-44
2022/05/07 05:47:49;;;;;;;4.20;3.13;;;13.30;99.90;;;;;;5073156;28;20444;-43
2022/05/07 05:50:16;;;;;;;3.10;2.80;;;13.30;99.90;;;;;;5073332;28;20551;-43
2022/05/07 05:52:43;;;;;;;3.93;3.20;;;13.30;99.90;;;;;;5072666;28;21074;-44
2022/05/07 05:55:11;;;;;;;3.20;3.00;;;13.30;99.90;;;;;;5073210;28;20480;-43
2022/05/07 05:57:38;;;;;;;4.07;3.70;;;13.40;99.90;;;;;;5073086;28;20441;-43
2022/05/07 06:00:07;;;;;;;3.77;3.47;;;13.40;99.90;;;;;;5072878;28;20461;-43
2022/05/07 06:02:34;;;;;;;4.00;3.70;;;13.40;99.90;;;;;;5072472;28;20556;-45
2022/05/07 06:05:01;;;;;;;3.80;3.20;;;13.40;99.90;;;;;;5072704;28;20480;-43
2022/05/07 06:07:28;;;;;;;5.70;4.90;;;13.40;99.90;;;;;;5072815;28;20472;-43
2022/05/07 06:09:54;;;;;;;17.43;9.53;;;13.40;99.90;;;;;;5135236;22;20503;-45
2022/05/07 06:12:24;;;;;;;6.50;4.00;;;13.40;99.90;;;;;;5092390;28;20485;-45
2022/05/07 06:14:54;;;;;;;3.53;3.23;;;13.30;99.90;;;;;;5093028;28;20443;-45
2022/05/07 06:17:21;;;;;;;2.73;2.50;;;13.30;99.90;;;;;;5092995;28;20928;-46
2022/05/07 06:19:48;;;;;;;4.23;2.90;;;13.30;99.90;;;;;;5092574;28;20546;-45
2022/05/07 06:22:14;;;;;;;3.27;2.97;;;13.30;99.90;;;;;;5092696;28;20532;-45
2022/05/07 06:27:32;;;;;;;3.77;2.40;;;13.20;99.90;;;;;;5091742;28;20426;-45
2022/05/07 06:29:59;;;;;;;2.13;1.93;;;13.20;99.90;;;;;;5091464;28;20463;-45
2022/05/07 06:32:32;;;;;;;2.43;2.20;;;13.10;99.90;;;;;;5092183;28;20467;-45
2022/05/07 06:34:59;;;;;;;2.73;2.03;;;13.10;99.90;;;;;;5092661;28;20808;-45
2022/05/07 06:37:26;;;;;;;4.13;2.37;;;13.10;99.90;;;;;;5092521;28;20479;-45
2022/05/07 06:39:53;;;;;;;2.17;1.97;;;13.10;99.90;;;;;;5092224;28;20833;-45
2022/05/07 06:42:20;;;;;;;2.20;2.00;;;13.10;99.90;;;;;;5092048;28;21078;-45
2022/05/07 06:44:48;;;;;;;2.30;1.70;;;13.20;99.90;;;;;;5091643;28;21005;-45
2022/05/07 06:47:16;;;;;;;3.60;1.70;;;13.30;99.90;;;;;;5092037;28;20936;-45
2022/05/07 06:49:43;;;;;;;2.47;1.90;;;13.40;99.90;;;;;;5091949;28;20467;-45
2022/05/07 06:52:10;;;;;;;2.10;1.90;;;13.40;99.90;;;;;;5091698;28;20442;-45
2022/05/07 06:54:37;;;;;;;2.97;1.80;;;13.40;99.90;;;;;;5091773;28;20482;-45
2022/05/07 06:57:05;;;;;;;3.30;3.00;;;13.40;99.90;;;;;;5092343;28;20994;-45
2022/05/07 06:59:32;;;;;;;3.27;2.97;;;13.50;99.90;;;;;;5091974;28;20990;-45
2022/05/07 07:02:01;;;;;;;3.73;3.40;;;13.50;99.90;;;;;;5091169;28;20805;-45
2022/05/07 07:04:27;;;;;;;3.20;2.90;;;13.50;99.90;;;;;;5090067;28;20482;-45
2022/05/07 07:06:54;;;;;;;2.73;2.50;;;13.60;99.90;;;;;;5090483;28;20526;-45
2022/05/07 07:09:21;;;;;;;2.97;2.67;;;13.60;99.90;;;;;;5090972;28;20472;-45
2022/05/07 07:11:48;;;;;;;3.07;2.80;;;13.60;99.90;;;;;;5091501;28;20447;-45
2022/05/07 07:14:15;;;;;;;12.20;11.03;;;13.70;99.90;;;;;;5091380;28;20475;-45
2022/05/07 07:16:42;;;;;;;4.87;4.40;;;13.60;99.90;;;;;;5091693;28;20995;-45
2022/05/07 07:19:11;;;;;;;7.77;6.57;;;13.60;99.90;;;;;;5091542;28;20443;-45
2022/05/07 07:21:38;;;;;;;3.53;3.20;;;13.60;99.90;;;;;;5091497;28;20541;-45
2022/05/07 07:24:06;;;;;;;3.33;2.80;;;13.60;99.90;;;;;;5091371;28;20475;-46
2022/05/07 07:26:33;;;;;;;8.80;7.57;;;13.70;99.90;;;;;;5091452;28;20494;-46
2022/05/07 07:29:00;;;;;;;6.03;3.10;;;13.70;99.90;;;;;;5091294;28;20475;-46
2022/05/07 07:31:26;;;;;;;2.90;2.70;;;13.70;99.90;;;;;;5092006;28;20987;-45
2022/05/07 07:33:53;;;;;;;3.10;2.50;;;13.80;99.90;;;;;;5090481;28;20467;-45
2022/05/07 07:36:22;;;;;;;2.90;2.70;;;13.70;99.90;;;;;;5090372;28;20444;-45
2022/05/07 07:38:49;;;;;;;2.80;2.50;;;13.70;99.90;;;;;;5089917;28;20435;-45
2022/05/07 07:41:17;;;;;;;2.90;2.60;;;13.70;99.90;;;;;;5090263;28;20524;-45
2022/05/07 07:43:44;;;;;;;2.70;2.10;;;13.70;99.90;;;;;;5091045;28;20443;-45
2022/05/07 07:48:55;;;;;;;2.30;2.10;;;13.90;99.90;;;;;;5091661;28;20935;-45
2022/05/07 07:51:23;;;;;;;2.50;2.30;;;13.90;99.90;;;;;;5091271;28;20764;-45
2022/05/07 07:53:50;;;;;;;3.73;3.43;;;13.80;99.90;;;;;;5091245;28;20500;-45
2022/05/07 07:56:18;;;;;;;2.00;1.80;;;13.80;99.90;;;;;;5091013;28;20443;-45
2022/05/07 07:58:45;;;;;;;2.03;1.80;;;13.80;99.90;;;;;;5091583;28;20520;-45
2022/05/07 08:01:12;;;;;;;2.37;2.17;;;13.80;99.90;;;;;;5091553;28;20553;-45
2022/05/07 08:03:39;;;;;;;3.10;2.00;;;13.80;99.90;;;;;;5090948;28;20475;-46
2022/05/07 08:06:06;;;;;;;4.07;2.20;;;13.90;99.90;;;;;;5091471;28;20464;-45
2022/05/07 08:14:03;;;;;;;2.40;1.90;;;13.90;99.90;;;;;;5090773;28;20928;-45
2022/05/07 08:16:30;;;;;;;2.93;2.57;;;13.90;99.90;;;;;;5091050;28;20842;-46
2022/05/07 08:18:57;;;;;;;2.30;1.90;;;13.90;99.90;;;;;;5090871;28;20447;-45
2022/05/07 08:21:24;;;;;;;2.10;1.90;;;13.90;99.90;;;;;;5090929;28;20875;-45
2022/05/07 08:23:53;;;;;;;3.73;2.20;;;13.90;99.90;;;;;;5090839;28;20534;-46
2022/05/07 08:26:20;;;;;;;1.97;1.70;;;13.90;99.90;;;;;;5090863;28;20439;-45
2022/05/07 08:28:47;;;;;;;3.23;2.10;;;13.90;99.90;;;;;;5090764;28;20497;-45
2022/05/07 08:31:15;;;;;;;2.60;2.40;;;13.90;99.90;;;;;;5091042;28;20575;-45
2022/05/07 08:33:42;;;;;;;1.97;1.70;;;13.90;99.90;;;;;;5090925;28;20447;-46
2022/05/07 08:36:10;;;;;;;2.60;2.40;;;13.90;99.90;;;;;;5090838;28;20474;-45
2022/05/07 08:38:37;;;;;;;3.20;2.90;;;13.90;99.90;;;;;;5090922;28;20439;-45
2022/05/07 08:41:06;;;;;;;3.27;2.20;;;13.90;99.90;;;;;;5090725;28;20998;-45
2022/05/07 08:43:36;;;;;;;3.13;2.87;;;13.90;99.90;;;;;;5090207;28;20467;-45
2022/05/07 08:46:09;;;;;;;3.30;3.00;;;13.90;99.90;;;;;;5090960;28;20518;-45
2022/05/07 08:48:36;;;;;;;4.00;2.70;;;14.00;99.90;;;;;;5091167;28;20446;-46
2022/05/07 08:51:05;;;;;;;3.37;2.80;;;13.90;99.90;;;;;;5094391;28;20459;-46
2022/05/07 08:53:32;;;;;;;2.30;1.97;;;13.90;99.90;;;;;;5093932;28;20475;-45
2022/05/07 08:55:59;;;;;;;3.40;2.60;;;13.80;99.90;;;;;;5094385;28;20470;-45
2022/05/07 08:58:27;;;;;;;2.37;2.17;;;13.80;99.90;;;;;;5094638;28;20496;-45
2022/05/07 09:00:54;;;;;;;2.57;2.33;;;13.80;99.90;;;;;;5094124;28;20546;-45
2022/05/07 09:03:21;;;;;;;2.60;2.30;;;13.70;99.90;;;;;;5093643;28;20511;-44
2022/05/07 09:05:48;;;;;;;5.10;2.10;;;13.80;99.90;;;;;;5094307;28;20443;-45
2022/05/07 09:08:15;;;;;;;3.50;2.67;;;13.90;99.90;;;;;;5094158;28;20955;-45
2022/05/07 09:10:42;;;;;;;2.40;2.20;;;13.90;99.90;;;;;;5093854;28;20510;-43
2022/05/07 09:13:12;;;;;;;3.43;2.03;;;14.00;99.90;;;;;;5093725;28;20924;-45
2022/05/07 09:15:52;;;;;;;2.47;1.80;;;14.10;99.90;;;;;;5094203;28;20452;-45
2022/05/07 09:18:20;;;;;;;1.83;1.57;;;14.00;99.90;;;;;;5093090;28;20443;-45
2022/05/07 09:21:15;;;;;;;2.10;1.60;;;14.10;99.90;;;;;;5092182;28;20459;-46
2022/05/07 09:23:43;;;;;;;1.83;1.53;;;14.20;99.90;;;;;;5092314;28;20842;-45
2022/05/07 09:26:10;;;;;;;2.00;1.70;;;14.30;99.90;;;;;;5092040;28;20443;-46
2022/05/07 09:28:38;;;;;;;2.60;1.67;;;14.40;99.90;;;;;;5091633;28;20435;-45
2022/05/07 09:31:08;;;;;;;2.23;2.03;;;14.40;99.90;;;;;;5092022;28;20538;-45
2022/05/07 09:33:36;;;;;;;2.20;1.90;;;14.50;99.90;;;;;;5082137;28;21023;-46
2022/05/07 09:36:11;;;;;;;2.67;1.80;;;14.40;99.90;;;;;;5090294;28;20954;-45
2022/05/07 09:38:39;;;;;;;3.37;1.97;;;14.30;99.90;;;;;;5090361;28;20432;-45
2022/05/07 09:41:06;;;;;;;3.03;2.37;;;14.30;99.90;;;;;;5086834;28;20462;-46
2022/05/07 09:43:33;;;;;;;2.37;2.17;;;14.30;99.90;;;;;;5082985;28;21076;-45
2022/05/07 09:46:01;;;;;;;2.33;1.90;;;14.30;99.90;;;;;;5076642;28;20441;-45
2022/05/07 09:48:30;;;;;;;2.30;1.93;;;14.30;99.90;;;;;;5091962;28;20502;-45
2022/05/07 09:50:58;;;;;;;2.13;1.93;;;14.30;99.90;;;;;;5087408;28;20471;-45
2022/05/07 09:58:54;;;;;;;1.97;1.70;;;14.40;99.90;;;;;;5092071;28;20480;-45
2022/05/07 10:01:38;;;;;;;2.23;1.87;;;14.30;99.90;;;;;;5087045;28;20971;-46
2022/05/07 10:04:22;;;;;;;1.80;1.23;;;14.30;99.90;;;;;;5084466;28;20452;-45
2022/05/07 10:07:03;;;;;;;2.17;1.40;;;14.40;99.90;;;;;;5088901;28;20467;-45
2022/05/07 10:09:41;;;;;;;3.00;1.60;;;14.40;99.90;;;;;;5072591;28;20527;-45
2022/05/07 10:12:09;;;;;;;2.40;1.70;;;14.50;99.90;;;;;;5077671;28;20440;-45
2022/05/07 10:14:36;;;;;;;4.03;3.50;;;14.50;99.90;;;;;;5071507;28;20520;-45
2022/05/07 10:17:11;;;;;;;5.50;4.30;;;14.50;99.90;;;;;;5072322;28;20440;-46
2022/05/07 10:19:42;;;;;;;2.40;1.87;;;14.40;99.90;;;;;;5072328;28;20447;-46
2022/05/07 10:22:21;;;;;;;1.40;1.23;;;14.20;99.90;;;;;;5072002;28;20849;-45
2022/05/07 10:24:49;;;;;;;1.80;1.60;;;14.30;99.90;;;;;;5072231;28;20444;-45
2022/05/07 10:27:26;;;;;;;2.00;1.90;;;14.30;99.90;;;;;;5072257;28;20440;-45
2022/05/07 10:30:04;;;;;;;1.73;1.23;;;14.30;99.90;;;;;;5071188;28;20577;-45
2022/05/07 10:32:31;;;;;;;1.50;1.23;;;14.30;99.90;;;;;;5071235;28;20468;-46
2022/05/07 10:34:59;;;;;;;2.10;1.67;;;14.30;99.90;;;;;;5087137;28;20960;-45
2022/05/07 10:37:26;;;;;;;2.10;1.47;;;14.30;99.90;;;;;;5085991;28;20498;-46
2022/05/07 10:39:54;;;;;;;2.13;1.70;;;14.30;99.90;;;;;;5071144;28;20461;-46
2022/05/07 10:42:22;;;;;;;1.90;1.60;;;14.30;99.90;;;;;;5071456;28;20976;-45
2022/05/07 10:44:50;;;;;;;2.10;1.90;;;14.40;99.90;;;;;;5072773;28;20448;-45
2022/05/07 10:47:19;;;;;;;2.83;2.07;;;14.30;99.90;;;;;;5080434;28;20440;-46
2022/05/07 10:49:53;;;;;;;2.33;1.90;;;14.30;99.90;;;;;;5089352;28;20471;-46
2022/05/07 10:52:35;;;;;;;2.67;2.30;;;14.20;99.90;;;;;;5090901;28;20439;-47
2022/05/07 10:55:07;;;;;;;3.93;2.23;;;14.30;99.90;;;;;;5079706;28;20467;-45
2022/05/07 10:57:44;;;;;;;1.97;1.60;;;14.40;99.90;;;;;;5071688;28;20445;-45
2022/05/07 11:00:17;;;;;;;2.17;1.50;;;14.30;99.90;;;;;;5074439;28;20507;-45
2022/05/07 11:02:45;;;;;;;2.20;1.50;;;14.20;99.90;;;;;;5088119;28;20475;-45
2022/05/07 11:05:12;;;;;;;1.70;1.40;;;14.20;99.90;;;;;;5074555;28;20471;-45
2022/05/07 11:07:41;;;;;;;2.27;2.07;;;14.20;99.90;;;;;;5079424;28;20436;-45
2022/05/07 11:10:09;;;;;;;2.23;1.40;;;14.20;99.90;;;;;;5087537;28;20483;-45
2022/05/07 11:12:36;;;;;;;1.93;1.30;;;14.20;99.90;;;;;;5075890;28;20444;-45
2022/05/07 11:15:04;;;;;;;1.80;1.43;;;14.10;99.90;;;;;;5086212;28;20476;-46
2022/05/07 11:17:35;;;;;;;1.50;1.30;;;14.10;99.90;;;;;;5072092;28;20530;-45
2022/05/07 11:20:03;;;;;;;2.47;1.60;;;14.10;99.90;;;;;;5069847;28;20460;-46
2022/05/07 11:22:31;;;;;;;2.10;1.73;;;14.10;99.90;;;;;;5084773;28;20488;-45
2022/05/07 11:25:01;;;;;;;2.83;2.60;;;14.20;99.90;;;;;;5074768;28;20452;-45
2022/05/07 11:27:32;;;;;;;2.20;2.00;;;14.20;99.90;;;;;;5075041;28;20472;-45
2022/05/07 11:30:00;;;;;;;3.40;3.10;;;14.30;99.90;;;;;;5082016;28;20463;-45
2022/05/07 11:32:38;;;;;;;3.93;3.57;;;14.30;99.90;;;;;;5091039;28;20467;-45
2022/05/07 11:35:06;;;;;;;3.10;2.80;;;14.30;99.90;;;;;;5088955;28;20443;-45
2022/05/07 11:37:40;;;;;;;5.10;2.10;;;14.30;99.90;;;;;;5080063;28;20984;-45
2022/05/07 11:40:09;;;;;;;6.50;5.17;;;14.30;99.90;;;;;;5068996;28;20983;-45
2022/05/07 11:42:39;;;;;;;4.47;3.57;;;14.30;99.90;;;;;;5076332;28;20506;-45
2022/05/07 11:45:26;;;;;;;3.10;2.30;;;14.30;99.90;;;;;;5083281;28;20534;-46
2022/05/07 11:47:55;;;;;;;2.20;2.00;;;14.30;99.90;;;;;;5075469;28;20443;-45
2022/05/07 11:50:24;;;;;;;2.33;1.73;;;14.20;99.90;;;;;;5078295;28;20881;-46
2022/05/07 11:52:51;;;;;;;1.83;1.70;;;14.20;99.90;;;;;;5075374;28;20443;-46
2022/05/07 11:55:25;;;;;;;1.80;1.47;;;14.20;99.90;;;;;;5080709;28;20448;-46
2022/05/07 11:57:52;;;;;;;1.87;1.60;;;14.30;99.90;;;;;;5071295;28;20502;-45
2022/05/07 12:00:22;;;;;;;1.50;1.30;;;14.30;99.90;;;;;;5085964;28;20509;-45
2022/05/07 12:02:53;;;;;;;2.20;1.00;;;14.30;99.90;;;;;;5089232;28;20559;-45
2022/05/07 12:05:21;;;;;;;1.70;1.40;;;14.20;99.90;;;;;;5088808;28;20475;-45
2022/05/07 12:07:50;;;;;;;1.73;1.60;;;14.10;99.90;;;;;;5087839;28;20486;-46
2022/05/07 12:10:18;;;;;;;3.13;1.30;;;14.00;99.90;;;;;;5129065;22;21393;-46
2022/05/07 12:12:49;;;;;;;1.93;1.67;;;13.90;99.90;;;;;;5067219;28;20445;-46
2022/05/07 12:15:16;;;;;;;3.10;1.40;;;14.00;99.90;;;;;;5068455;28;20440;-47
2022/05/07 12:17:55;;;;;;;1.87;1.30;;;14.10;99.90;;;;;;5069087;28;20445;-47
2022/05/07 12:20:25;;;;;;;1.30;1.17;;;14.10;99.90;;;;;;5069747;28;20456;-45
2022/05/07 12:31:08;;;;;;;2.17;1.70;;;14.10;99.90;;;;;;5074236;28;20443;-47
2022/05/07 12:33:37;;;;;;;1.90;1.70;;;14.20;99.90;;;;;;5073818;28;20440;-43
2022/05/07 12:36:04;;;;;;;1.50;1.40;;;14.20;99.90;;;;;;5073916;28;20531;-44
2022/05/07 12:38:31;;;;;;;2.37;1.90;;;14.30;99.90;;;;;;5073534;28;20986;-46
2022/05/07 12:40:58;;;;;;;2.23;1.50;;;14.40;99.90;;;;;;5073602;28;20513;-46
2022/05/07 12:43:28;;;;;;;5.23;1.50;;;14.40;99.90;;;;;;5073416;28;20502;-44
2022/05/07 12:45:55;;;;;;;1.43;0.80;;;14.30;99.90;;;;;;5073716;28;20498;-45
2022/05/07 12:48:22;;;;;;;3.27;1.30;;;14.20;99.90;;;;;;5071487;28;20485;-43
2022/05/07 12:50:49;;;;;;;2.00;0.90;;;14.30;99.90;;;;;;5073304;28;20514;-48
2022/05/07 12:53:16;;;;;;;1.77;1.07;;;14.30;99.90;;;;;;5073893;28;20476;-44
2022/05/07 12:55:43;;;;;;;1.77;1.13;;;14.30;99.90;;;;;;5074025;28;20480;-47
2022/05/07 12:58:11;;;;;;;1.47;1.27;;;14.30;99.90;;;;;;5073958;28;20475;-43
2022/05/07 13:00:40;;;;;;;1.17;0.97;;;14.00;99.90;;;;;;5073791;28;20553;-45
2022/05/07 13:03:07;;;;;;;1.67;1.33;;;13.80;99.90;;;;;;5073495;28;20479;-43
2022/05/07 13:05:35;;;;;;;1.30;1.13;;;13.80;99.90;;;;;;5073915;28;20478;-43
2022/05/07 13:08:03;;;;;;;1.60;1.00;;;13.70;99.90;;;;;;5073853;28;20443;-47
2022/05/07 13:10:31;;;;;;;1.40;1.00;;;13.80;99.90;;;;;;5073475;28;20987;-45
2022/05/07 13:12:59;;;;;;;1.73;1.07;;;13.80;99.90;;;;;;5073386;28;20447;-43
2022/05/07 13:15:28;;;;;;;1.50;1.40;;;13.80;99.90;;;;;;5073757;28;20517;-48
2022/05/07 13:17:57;;;;;;;1.63;1.10;;;13.80;99.90;;;;;;5073553;28;20535;-44
2022/05/07 13:20:26;;;;;;;1.87;1.33;;;13.70;99.90;;;;;;5073325;28;20522;-43
2022/05/07 13:22:53;;;;;;;1.93;1.67;;;13.70;99.90;;;;;;5073072;28;21060;-43
2022/05/07 13:25:20;;;;;;;1.77;1.63;;;13.70;99.90;;;;;;5073232;28;20922;-44